Time;durP1;ratioP1;P1;durP2;ratioP2;P2;SDS_P1;SDS_P2;PMS_P1;PMS_P2;Temp;Humidity;BMP_temperature;BMP_pressure;BME280_temperature;BME280_humidity;BME280_pressure;Samples;Min_cycle;Max_cycle;Signal;HPM_P1;HPM_P2
2022/01/01 00:01:52;;;;;;;31.00;26.25;;;9.00;99.90;;;;;;4982877;28;20223;-89
2022/01/01 00:04:20;;;;;;;37.08;26.95;;;9.00;99.90;;;;;;4992649;28;20258;-89
2022/01/01 00:07:10;;;;;;;;;;;;;;;;;;;;;
2022/01/01 00:09:43;;;;;;;32.63;27.42;;;9.00;99.90;;;;;;4992238;28;20216;-89
2022/01/01 00:12:11;;;;;;;26.65;21.65;;;8.90;99.90;;;;;;4992775;28;20231;-90
2022/01/01 00:14:39;;;;;;;27.30;22.15;;;9.00;99.90;;;;;;4973590;28;20263;-89
2022/01/01 00:17:07;;;;;;;33.10;24.08;;;9.10;99.90;;;;;;4972781;28;20580;-90
2022/01/01 00:19:38;;;;;;;26.70;23.88;;;9.20;99.90;;;;;;4973066;28;20204;-89
2022/01/01 00:22:07;;;;;;;32.40;23.33;;;9.20;99.90;;;;;;4972817;28;20607;-89
2022/01/01 00:24:34;;;;;;;27.58;20.42;;;9.30;99.90;;;;;;4973177;28;20221;-88
2022/01/01 00:27:01;;;;;;;25.55;21.40;;;9.20;99.90;;;;;;4987102;28;20283;-88
2022/01/01 00:29:29;;;;;;;26.20;22.00;;;9.20;99.90;;;;;;4991682;28;20208;-88
2022/01/01 00:31:55;;;;;;;28.25;22.88;;;9.20;99.90;;;;;;4991757;28;20310;-88
2022/01/01 00:34:22;;;;;;;23.02;19.60;;;9.20;99.90;;;;;;4991958;28;20664;-88
2022/01/01 00:36:51;;;;;;;21.98;18.92;;;9.20;99.90;;;;;;4992111;28;20204;-89
2022/01/01 00:39:18;;;;;;;25.52;19.30;;;9.10;99.90;;;;;;4991925;28;20709;-89
2022/01/01 00:41:44;;;;;;;27.73;22.27;;;9.10;99.90;;;;;;4991555;28;20324;-88
2022/01/01 00:44:15;;;;;;;18.83;16.23;;;9.10;99.90;;;;;;4991527;28;20199;-89
2022/01/01 00:46:42;;;;;;;17.02;15.25;;;9.10;99.90;;;;;;4990934;28;20277;-84
2022/01/01 00:49:09;;;;;;;17.75;14.05;;;9.00;99.90;;;;;;4987649;28;20207;-85
2022/01/01 01:05:36;;;;;;;12.25;10.82;;;8.80;99.90;;;;;;4804989;29;20242;-89
2022/01/01 01:08:03;;;;;;;11.95;10.35;;;8.60;99.90;;;;;;4879675;29;20222;-88
2022/01/01 01:10:29;;;;;;;13.32;9.77;;;8.70;99.90;;;;;;4950222;28;20234;-88
2022/01/01 01:12:56;;;;;;;10.65;9.43;;;8.70;99.90;;;;;;4986874;28;20279;-89
2022/01/01 01:15:24;;;;;;;10.82;9.73;;;8.70;99.90;;;;;;4999780;28;20260;-88
2022/01/01 01:17:52;;;;;;;13.50;10.90;;;8.80;99.90;;;;;;4995769;28;20493;-88
2022/01/01 01:20:21;;;;;;;10.75;9.65;;;8.70;99.90;;;;;;4978716;28;20235;-89
2022/01/01 01:22:49;;;;;;;11.40;10.20;;;8.90;99.90;;;;;;4972097;28;20230;-88
2022/01/01 01:25:16;;;;;;;14.52;11.70;;;9.00;99.90;;;;;;4975595;28;20200;-88
2022/01/01 01:27:44;;;;;;;12.30;11.07;;;8.90;99.90;;;;;;4994674;28;20206;-88
2022/01/01 01:30:15;;;;;;;14.82;12.63;;;8.90;99.90;;;;;;4991956;28;20846;-88
2022/01/01 01:32:42;;;;;;;14.10;11.82;;;8.90;99.90;;;;;;4987477;28;20212;-88
2022/01/01 01:35:11;;;;;;;11.82;10.50;;;8.90;99.90;;;;;;4975076;28;20299;-88
2022/01/01 01:37:38;;;;;;;13.55;10.93;;;9.00;99.90;;;;;;4975348;28;20215;-89
2022/01/01 01:40:08;;;;;;;12.00;10.80;;;9.00;99.90;;;;;;4975293;28;20208;-88
2022/01/01 01:42:36;;;;;;;14.82;11.35;;;9.10;99.90;;;;;;4975512;28;20230;-89
2022/01/01 01:45:04;;;;;;;14.35;12.15;;;9.10;99.90;;;;;;4975405;28;20284;-89
2022/01/01 01:47:34;;;;;;;14.68;11.10;;;9.20;99.90;;;;;;4992270;28;20724;-89
2022/01/01 01:50:03;;;;;;;12.60;10.40;;;9.20;99.90;;;;;;4994482;28;20232;-88
2022/01/01 01:52:33;;;;;;;11.88;10.00;;;9.30;99.90;;;;;;4988136;28;20200;-88
2022/01/01 01:55:01;;;;;;;12.88;11.15;;;9.40;99.90;;;;;;4975082;28;20185;-88
2022/01/01 01:57:31;;;;;;;11.93;10.73;;;9.60;99.90;;;;;;4974962;28;20204;-89
2022/01/01 01:59:58;;;;;;;12.30;11.35;;;9.70;99.90;;;;;;4974802;28;20217;-89
2022/01/01 02:02:25;;;;;;;13.50;12.10;;;9.70;99.90;;;;;;4974710;28;20215;-88
2022/01/01 02:04:51;;;;;;;13.23;11.68;;;9.80;99.90;;;;;;4974913;28;20221;-88
2022/01/01 02:07:19;;;;;;;14.50;12.05;;;9.90;99.90;;;;;;4975019;28;20686;-88
2022/01/01 02:09:46;;;;;;;12.30;10.85;;;10.00;99.90;;;;;;4975256;28;20201;-89
2022/01/01 02:12:13;;;;;;;12.88;11.50;;;10.10;99.90;;;;;;5001031;28;20257;-89
2022/01/01 02:15:06;;;;;;;13.75;12.10;;;10.10;99.90;;;;;;5006726;28;20288;-88
2022/01/01 02:17:32;;;;;;;12.93;11.55;;;10.20;99.90;;;;;;4986310;28;20588;-89
2022/01/01 02:20:07;;;;;;;13.52;11.20;;;10.20;99.90;;;;;;4995931;28;20205;-89
2022/01/01 02:22:37;;;;;;;12.70;11.32;;;10.30;99.90;;;;;;4993910;28;20624;-88
2022/01/01 02:25:06;;;;;;;11.98;10.77;;;10.30;99.90;;;;;;4991648;28;20224;-88
2022/01/01 02:27:33;;;;;;;14.55;11.60;;;10.40;99.90;;;;;;4987117;28;20200;-88
2022/01/01 02:30:17;;;;;;;16.08;14.40;;;10.40;99.90;;;;;;4974786;28;20307;-88
2022/01/01 02:32:44;;;;;;;14.60;13.05;;;10.30;99.90;;;;;;4975094;28;20209;-88
2022/01/01 02:35:14;;;;;;;13.73;12.10;;;10.10;99.90;;;;;;4974709;28;20213;-88
2022/01/01 02:37:42;;;;;;;15.95;13.77;;;9.90;99.90;;;;;;4974137;28;20571;-88
2022/01/01 02:40:11;;;;;;;17.55;15.30;;;9.80;99.90;;;;;;4974346;28;20243;-88
2022/01/01 02:42:42;;;;;;;15.35;12.73;;;9.90;99.90;;;;;;4980587;28;20204;-88
2022/01/01 02:45:11;;;;;;;18.65;13.50;;;10.00;99.90;;;;;;4993685;28;20208;-88
2022/01/01 02:47:38;;;;;;;16.75;13.23;;;10.00;99.90;;;;;;4987442;28;20214;-88
2022/01/01 02:50:06;;;;;;;17.02;11.18;;;10.00;99.90;;;;;;4984773;28;20622;-89
2022/01/01 02:52:34;;;;;;;13.13;11.35;;;10.10;99.90;;;;;;4988115;28;20212;-89
2022/01/01 02:55:01;;;;;;;13.93;11.60;;;10.10;99.90;;;;;;4993224;28;20208;-88
2022/01/01 02:57:28;;;;;;;12.98;11.10;;;10.10;99.90;;;;;;4982065;28;20204;-89
2022/01/01 02:59:55;;;;;;;13.52;12.10;;;10.20;99.90;;;;;;4984627;28;20204;-88
2022/01/01 03:02:22;;;;;;;12.65;11.13;;;10.20;99.90;;;;;;4982565;28;20218;-88
2022/01/01 03:04:49;;;;;;;11.80;10.63;;;10.10;99.90;;;;;;4985480;28;20198;-88
2022/01/01 03:07:16;;;;;;;13.00;10.88;;;10.10;99.90;;;;;;4993160;28;20275;-88
2022/01/01 03:09:44;;;;;;;12.57;11.27;;;10.20;99.90;;;;;;4993293;28;20205;-88
2022/01/01 03:12:14;;;;;;;13.13;11.73;;;10.30;99.90;;;;;;4984996;28;20221;-88
2022/01/01 03:14:41;;;;;;;12.18;9.65;;;10.40;99.90;;;;;;4988250;28;20220;-89
2022/01/01 03:17:09;;;;;;;10.80;9.70;;;10.50;99.90;;;;;;4992988;28;20581;-88
2022/01/01 03:19:36;;;;;;;13.30;10.27;;;10.50;99.90;;;;;;4992898;28;20813;-89
2022/01/01 03:22:04;;;;;;;13.93;12.30;;;10.60;99.90;;;;;;4992569;28;20234;-88
2022/01/01 03:24:31;;;;;;;12.10;10.70;;;10.60;99.90;;;;;;4992754;28;20212;-88
2022/01/01 03:27:00;;;;;;;13.30;11.45;;;10.70;99.90;;;;;;4992771;28;20295;-88
2022/01/01 03:29:30;;;;;;;13.88;11.35;;;10.60;99.90;;;;;;4992248;28;20231;-88
2022/01/01 03:31:57;;;;;;;16.23;11.07;;;10.60;99.90;;;;;;4992459;28;20228;-89
2022/01/01 03:34:24;;;;;;;11.35;10.23;;;10.60;99.90;;;;;;4992925;28;20396;-88
2022/01/01 03:36:51;;;;;;;12.23;10.93;;;10.70;99.90;;;;;;4992731;28;20210;-89
2022/01/01 03:39:18;;;;;;;12.85;10.27;;;10.70;99.90;;;;;;4992693;28;20206;-88
2022/01/01 03:41:45;;;;;;;13.88;11.02;;;10.70;99.90;;;;;;4992687;28;20319;-88
2022/01/01 03:44:13;;;;;;;12.73;10.25;;;10.70;99.90;;;;;;4992800;28;20198;-88
2022/01/01 03:46:40;;;;;;;11.05;9.77;;;10.60;99.90;;;;;;4992684;28;20233;-88
2022/01/01 03:49:07;;;;;;;13.60;10.20;;;10.60;99.90;;;;;;4992763;28;20210;-89
2022/01/01 03:51:33;;;;;;;7.85;6.90;;;10.60;99.90;;;;;;4992654;28;21007;-88
2022/01/01 03:54:00;;;;;;;8.02;6.78;;;10.50;99.90;;;;;;4994467;28;20209;-88
2022/01/01 03:56:27;;;;;;;9.55;7.47;;;10.40;99.90;;;;;;5011939;28;20228;-89
2022/01/01 03:58:54;;;;;;;8.38;7.05;;;10.40;99.90;;;;;;5013541;28;20202;-89
2022/01/01 04:01:22;;;;;;;7.70;6.85;;;10.40;99.90;;;;;;5003976;28;20325;-88
2022/01/01 04:03:49;;;;;;;7.47;6.72;;;10.40;99.90;;;;;;4992910;28;20606;-90
2022/01/01 04:06:16;;;;;;;9.13;8.23;;;10.40;99.90;;;;;;4992117;28;20760;-87
2022/01/01 04:08:43;;;;;;;11.60;8.48;;;10.50;99.90;;;;;;4992630;28;20256;-88
2022/01/01 04:11:10;;;;;;;10.10;7.30;;;10.50;99.90;;;;;;4992549;28;20313;-88
2022/01/01 04:13:36;;;;;;;7.20;6.60;;;10.60;99.90;;;;;;4992238;28;20946;-88
2022/01/01 04:16:04;;;;;;;8.35;5.90;;;10.50;99.90;;;;;;4992236;28;20207;-89
2022/01/01 04:18:38;;;;;;;6.07;5.38;;;10.50;99.90;;;;;;4992470;28;20248;-89
2022/01/01 04:21:07;;;;;;;7.20;6.55;;;10.50;99.90;;;;;;4992280;28;20713;-89
2022/01/01 04:23:34;;;;;;;8.80;6.03;;;10.50;99.90;;;;;;4992264;28;20233;-89
2022/01/01 04:26:01;;;;;;;6.10;4.85;;;10.60;99.90;;;;;;4991880;28;20578;-89
2022/01/01 04:28:28;;;;;;;8.35;5.80;;;10.60;99.90;;;;;;4992037;28;20222;-89
2022/01/01 04:30:55;;;;;;;7.80;5.93;;;10.60;99.90;;;;;;4991843;28;20656;-89
2022/01/01 04:33:22;;;;;;;7.10;5.72;;;10.60;99.90;;;;;;4991896;28;20201;-89
2022/01/01 04:35:50;;;;;;;7.20;5.93;;;10.70;99.90;;;;;;4991985;28;20217;-89
2022/01/01 04:38:34;;;;;;;8.15;6.78;;;10.70;99.90;;;;;;4992395;28;20208;-89
2022/01/01 04:41:01;;;;;;;6.50;5.90;;;10.80;99.90;;;;;;4992067;28;20226;-88
2022/01/01 04:43:28;;;;;;;7.32;6.05;;;10.80;99.90;;;;;;4992609;28;20333;-89
2022/01/01 04:45:55;;;;;;;9.00;6.55;;;10.80;99.90;;;;;;4992696;28;20236;-88
2022/01/01 04:48:22;;;;;;;7.40;6.03;;;10.70;99.90;;;;;;4992302;28;20262;-90
2022/01/01 04:50:50;;;;;;;9.68;6.90;;;10.70;99.90;;;;;;4991750;28;20238;-89
2022/01/01 04:53:18;;;;;;;5.70;5.10;;;10.60;99.90;;;;;;4991926;28;20858;-89
2022/01/01 04:55:45;;;;;;;6.40;5.68;;;10.50;99.90;;;;;;4991886;28;20212;-87
2022/01/01 04:58:12;;;;;;;7.77;7.03;;;10.40;99.90;;;;;;4991457;28;20572;-88
2022/01/01 05:00:39;;;;;;;6.97;6.38;;;10.20;99.90;;;;;;4992491;28;20480;-87
2022/01/01 05:03:06;;;;;;;6.05;5.28;;;10.20;99.90;;;;;;4990795;28;20320;-87
2022/01/01 05:05:36;;;;;;;7.07;5.77;;;10.20;99.90;;;;;;4976107;28;20204;-87
2022/01/01 05:08:04;;;;;;;7.35;5.03;;;10.10;99.90;;;;;;4976622;28;20479;-87
2022/01/01 05:10:31;;;;;;;7.35;6.20;;;9.90;99.90;;;;;;4985184;28;20533;-87
2022/01/01 05:12:58;;;;;;;8.27;7.47;;;9.50;99.90;;;;;;4994498;28;20696;-88
2022/01/01 05:15:25;;;;;;;7.32;6.50;;;9.30;99.90;;;;;;4993931;28;20257;-87
2022/01/01 05:17:51;;;;;;;7.55;5.80;;;9.20;99.90;;;;;;4994933;28;20636;-87
2022/01/01 05:20:18;;;;;;;8.35;6.80;;;9.20;99.90;;;;;;4991361;28;20269;-88
2022/01/01 05:22:45;;;;;;;9.52;7.15;;;9.00;99.90;;;;;;4987021;28;20208;-86
2022/01/01 05:25:13;;;;;;;10.27;7.20;;;9.10;99.90;;;;;;4993074;28;20219;-87
2022/01/01 05:27:40;;;;;;;7.78;7.07;;;9.10;99.90;;;;;;4975458;28;20689;-87
2022/01/01 05:30:09;;;;;;;7.43;6.53;;;9.20;99.90;;;;;;4975807;28;20570;-86
2022/01/01 05:32:35;;;;;;;9.25;6.95;;;9.10;99.90;;;;;;4994904;28;20232;-87
2022/01/01 05:35:03;;;;;;;8.05;6.10;;;9.00;99.90;;;;;;4979287;28;20215;-87
2022/01/01 05:37:29;;;;;;;9.48;7.80;;;9.00;99.90;;;;;;4975985;28;20220;-88
2022/01/01 05:39:56;;;;;;;7.07;6.43;;;8.90;99.90;;;;;;4989468;28;20229;-88
2022/01/01 05:42:24;;;;;;;7.97;7.18;;;8.90;99.90;;;;;;4994883;28;20665;-87
2022/01/01 05:44:51;;;;;;;6.32;5.72;;;8.90;99.90;;;;;;4995403;28;20231;-87
2022/01/01 05:47:18;;;;;;;8.10;7.28;;;8.80;99.90;;;;;;4994812;28;20701;-87
2022/01/01 05:49:44;;;;;;;7.70;6.68;;;8.80;99.90;;;;;;4984616;28;20215;-87
2022/01/01 05:52:11;;;;;;;6.43;5.47;;;8.70;99.90;;;;;;4975005;28;20755;-89
2022/01/01 05:54:38;;;;;;;6.10;5.30;;;8.70;99.90;;;;;;4975271;28;20216;-88
2022/01/01 05:57:06;;;;;;;7.10;5.88;;;8.60;99.90;;;;;;4975406;28;20292;-88
2022/01/01 05:59:34;;;;;;;8.43;7.70;;;8.50;99.90;;;;;;4975480;28;20287;-88
2022/01/01 06:02:01;;;;;;;6.80;6.20;;;8.60;99.90;;;;;;4975388;28;20228;-88
2022/01/01 06:04:28;;;;;;;9.38;5.82;;;8.50;99.90;;;;;;4975663;28;20348;-88
2022/01/01 06:06:56;;;;;;;9.30;7.30;;;8.50;99.90;;;;;;4975414;28;20228;-88
2022/01/01 06:09:23;;;;;;;7.25;6.63;;;8.40;99.90;;;;;;4975378;28;20291;-88
2022/01/01 06:11:50;;;;;;;8.68;6.30;;;8.40;99.90;;;;;;4974985;28;20650;-88
2022/01/01 06:14:17;;;;;;;5.57;5.07;;;8.40;99.90;;;;;;4974708;28;20284;-89
2022/01/01 06:16:45;;;;;;;8.13;6.28;;;8.50;99.90;;;;;;4974871;28;20663;-89
2022/01/01 06:19:12;;;;;;;8.23;6.82;;;8.60;99.90;;;;;;4975076;28;20218;-88
2022/01/01 06:21:39;;;;;;;8.07;6.85;;;8.70;99.90;;;;;;4975114;28;20235;-89
2022/01/01 06:24:06;;;;;;;8.65;5.68;;;8.80;99.90;;;;;;4978146;28;20200;-88
2022/01/01 06:26:33;;;;;;;6.20;5.55;;;8.90;99.90;;;;;;4993950;28;20195;-88
2022/01/01 06:28:59;;;;;;;8.23;6.85;;;8.90;99.90;;;;;;4993970;28;20658;-88
2022/01/01 06:31:26;;;;;;;6.75;5.90;;;9.00;99.90;;;;;;4993541;28;20600;-88
2022/01/01 06:33:54;;;;;;;7.43;6.60;;;9.00;99.90;;;;;;4994041;28;20216;-88
2022/01/01 06:36:21;;;;;;;6.38;5.45;;;9.10;99.90;;;;;;4993859;28;20635;-88
2022/01/01 06:38:48;;;;;;;8.15;4.90;;;9.10;99.90;;;;;;4993740;28;20292;-88
2022/01/01 06:41:15;;;;;;;8.43;6.07;;;9.10;99.90;;;;;;4993334;28;20232;-88
2022/01/01 06:43:42;;;;;;;5.20;4.72;;;9.00;99.90;;;;;;4993784;28;20232;-89
2022/01/01 06:46:09;;;;;;;5.75;4.38;;;9.10;99.90;;;;;;4993424;28;20214;-88
2022/01/01 06:48:36;;;;;;;5.63;5.07;;;9.10;99.90;;;;;;4993465;28;20298;-88
2022/01/01 06:51:04;;;;;;;5.53;4.65;;;9.00;99.90;;;;;;4993469;28;20233;-88
2022/01/01 06:53:31;;;;;;;5.88;4.93;;;9.10;99.90;;;;;;4993578;28;20627;-89
2022/01/01 06:55:59;;;;;;;6.40;4.97;;;9.10;99.90;;;;;;4985475;28;20617;-88
2022/01/01 06:58:26;;;;;;;5.50;4.03;;;9.10;99.90;;;;;;4974097;28;20212;-87
2022/01/01 07:00:53;;;;;;;9.80;6.40;;;9.10;99.90;;;;;;4973970;28;20224;-88
2022/01/01 07:03:22;;;;;;;6.05;5.32;;;9.10;99.90;;;;;;4973985;28;20666;-88
2022/01/01 07:05:49;;;;;;;6.35;5.72;;;9.00;99.90;;;;;;4973672;28;20233;-88
2022/01/01 07:08:18;;;;;;;9.25;6.50;;;8.90;99.90;;;;;;4973824;28;20239;-88
2022/01/01 07:10:45;;;;;;;6.53;5.85;;;8.70;99.90;;;;;;4985988;28;20639;-88
2022/01/01 07:13:12;;;;;;;5.43;4.60;;;8.70;99.90;;;;;;4993307;28;20235;-89
2022/01/01 07:15:39;;;;;;;5.90;5.28;;;8.90;99.90;;;;;;4992996;28;20214;-88
2022/01/01 07:18:06;;;;;;;6.72;6.13;;;8.80;99.90;;;;;;4993241;28;20558;-88
2022/01/01 07:20:33;;;;;;;7.95;5.60;;;8.80;99.90;;;;;;4993022;28;20235;-89
2022/01/01 07:23:00;;;;;;;5.68;5.18;;;8.90;99.90;;;;;;4992384;28;20214;-89
2022/01/01 07:25:29;;;;;;;5.80;5.30;;;8.80;99.90;;;;;;4992868;28;20203;-88
2022/01/01 07:27:56;;;;;;;5.55;4.65;;;8.90;99.90;;;;;;4993145;28;20298;-88
2022/01/01 07:30:23;;;;;;;5.43;5.03;;;8.80;99.90;;;;;;4992708;28;20227;-88
2022/01/01 07:32:50;;;;;;;6.38;5.68;;;8.60;99.90;;;;;;4992794;28;20362;-88
2022/01/01 07:35:19;;;;;;;7.05;5.40;;;8.60;99.90;;;;;;4992733;28;20208;-88
2022/01/01 07:37:46;;;;;;;5.47;4.97;;;8.50;99.90;;;;;;4992635;28;20210;-88
2022/01/01 07:40:14;;;;;;;5.70;5.18;;;8.70;99.90;;;;;;4992567;28;20220;-89
2022/01/01 07:42:44;;;;;;;6.65;5.47;;;8.70;99.90;;;;;;4992695;28;20243;-89
2022/01/01 07:45:12;;;;;;;8.60;5.35;;;8.80;99.90;;;;;;4992680;28;20208;-88
2022/01/01 07:47:39;;;;;;;7.28;6.57;;;8.80;99.90;;;;;;4992567;28;20671;-88
2022/01/01 07:50:07;;;;;;;5.78;5.10;;;8.90;99.90;;;;;;4992312;28;20215;-88
2022/01/01 07:52:34;;;;;;;6.00;5.47;;;9.00;99.90;;;;;;4992601;28;20234;-88
2022/01/01 07:55:01;;;;;;;5.45;4.95;;;9.10;99.90;;;;;;4992392;28;20295;-88
2022/01/01 07:57:28;;;;;;;5.55;4.18;;;9.10;99.90;;;;;;4992484;28;20576;-88
2022/01/01 07:59:56;;;;;;;5.40;4.68;;;9.10;99.90;;;;;;4992204;28;20209;-88
2022/01/01 08:02:23;;;;;;;7.95;5.80;;;9.30;99.90;;;;;;4992196;28;20232;-88
2022/01/01 08:04:50;;;;;;;5.90;4.30;;;9.40;99.90;;;;;;4992612;28;20551;-88
2022/01/01 08:07:17;;;;;;;5.60;4.88;;;9.40;99.90;;;;;;4992382;28;20216;-88
2022/01/01 08:09:44;;;;;;;6.55;5.18;;;9.50;99.90;;;;;;4992152;28;20537;-88
2022/01/01 08:12:11;;;;;;;6.80;5.38;;;9.50;99.90;;;;;;4991954;28;20255;-88
2022/01/01 08:14:38;;;;;;;5.57;4.88;;;9.40;99.90;;;;;;4992268;28;20208;-89
2022/01/01 08:17:07;;;;;;;5.65;4.68;;;9.30;99.90;;;;;;4992533;28;20223;-88
2022/01/01 08:19:34;;;;;;;7.20;6.25;;;9.20;99.90;;;;;;4992485;28;20218;-88
2022/01/01 08:22:01;;;;;;;5.85;4.88;;;9.10;99.90;;;;;;4992229;28;20226;-88
2022/01/01 08:24:28;;;;;;;7.40;4.88;;;9.10;99.90;;;;;;4992526;28;20208;-88
2022/01/01 08:26:55;;;;;;;5.30;4.80;;;9.00;99.90;;;;;;4992461;28;20302;-88
2022/01/01 08:29:22;;;;;;;7.20;4.85;;;9.00;99.90;;;;;;4991983;28;20764;-88
2022/01/01 08:31:50;;;;;;;4.80;4.40;;;9.00;99.90;;;;;;4991603;28;20228;-88
2022/01/01 08:34:19;;;;;;;7.80;5.32;;;9.10;99.90;;;;;;4992112;28;20214;-88
2022/01/01 08:36:46;;;;;;;5.78;5.18;;;9.00;99.90;;;;;;4995367;28;20251;-88
2022/01/01 08:39:16;;;;;;;6.35;4.72;;;9.00;99.90;;;;;;4996547;28;20207;-88
2022/01/01 08:41:44;;;;;;;5.55;5.03;;;9.10;99.90;;;;;;4996672;28;20247;-88
2022/01/01 08:44:11;;;;;;;6.35;5.00;;;9.00;99.90;;;;;;4996561;28;20231;-88
2022/01/01 08:46:39;;;;;;;5.50;4.95;;;9.10;99.90;;;;;;4996542;28;20223;-88
2022/01/01 08:49:06;;;;;;;5.57;4.97;;;9.20;99.90;;;;;;4996543;28;20256;-88
2022/01/01 08:51:36;;;;;;;7.20;4.53;;;9.20;99.90;;;;;;4996276;28;20285;-88
2022/01/01 08:54:03;;;;;;;6.07;5.25;;;9.10;99.90;;;;;;4996167;28;20682;-88
2022/01/01 08:56:32;;;;;;;5.40;4.90;;;9.30;99.90;;;;;;4996155;28;20303;-88
2022/01/01 08:58:59;;;;;;;3.95;3.65;;;9.40;99.90;;;;;;4996199;28;20252;-88
2022/01/01 09:01:26;;;;;;;5.20;4.70;;;9.40;99.90;;;;;;4996272;28;20235;-88
2022/01/01 09:03:53;;;;;;;5.95;5.13;;;9.50;99.90;;;;;;4995924;28;20665;-88
2022/01/01 09:06:21;;;;;;;5.32;4.35;;;9.50;99.90;;;;;;4996137;28;20232;-88
2022/01/01 09:08:49;;;;;;;6.60;4.28;;;9.60;99.90;;;;;;4995727;28;20244;-88
2022/01/01 09:11:16;;;;;;;4.18;3.60;;;9.60;99.90;;;;;;4995418;28;20710;-88
2022/01/01 09:13:44;;;;;;;4.90;4.40;;;9.70;99.90;;;;;;4995692;28;20663;-89
2022/01/01 09:16:13;;;;;;;4.72;4.00;;;9.70;99.90;;;;;;4995825;28;20229;-88
2022/01/01 09:18:40;;;;;;;4.00;3.60;;;9.80;99.90;;;;;;4995576;28;20280;-88
2022/01/01 09:21:08;;;;;;;6.43;3.92;;;9.90;99.90;;;;;;4995669;28;20222;-88
2022/01/01 09:23:35;;;;;;;4.50;3.63;;;10.00;99.90;;;;;;4995932;28;20644;-88
2022/01/01 09:26:03;;;;;;;4.10;3.70;;;10.10;99.90;;;;;;4995739;28;20214;-88
2022/01/01 09:28:32;;;;;;;4.38;3.85;;;10.10;99.90;;;;;;4995504;28;20646;-89
2022/01/01 09:31:00;;;;;;;5.57;4.57;;;10.10;99.90;;;;;;4995597;28;20703;-88
2022/01/01 09:33:29;;;;;;;4.15;3.85;;;10.20;99.90;;;;;;4995440;28;20479;-88
2022/01/01 09:35:56;;;;;;;3.30;3.03;;;10.30;99.90;;;;;;4995799;28;20221;-88
2022/01/01 09:38:23;;;;;;;3.90;3.17;;;10.40;99.90;;;;;;4995519;28;20213;-88
2022/01/01 09:40:53;;;;;;;4.53;4.15;;;10.50;99.90;;;;;;4995216;28;20229;-88
2022/01/01 09:43:22;;;;;;;3.47;3.17;;;10.60;99.90;;;;;;4995600;28;20242;-88
2022/01/01 09:45:49;;;;;;;5.20;4.50;;;10.70;99.90;;;;;;4994613;28;20235;-88
2022/01/01 09:48:18;;;;;;;5.53;3.93;;;10.80;99.90;;;;;;4995046;28;20216;-88
2022/01/01 09:50:47;;;;;;;3.00;2.80;;;11.00;99.90;;;;;;4992616;28;21099;-88
2022/01/01 09:53:14;;;;;;;4.40;3.50;;;11.00;99.90;;;;;;4975547;28;20490;-87
2022/01/01 09:55:41;;;;;;;4.67;3.70;;;11.10;99.90;;;;;;4975233;28;20464;-88
2022/01/01 09:58:08;;;;;;;2.83;2.63;;;11.20;99.90;;;;;;4975586;28;20449;-88
2022/01/01 10:00:37;;;;;;;3.13;2.83;;;11.30;99.90;;;;;;4975440;28;20572;-88
2022/01/01 10:03:04;;;;;;;2.93;2.60;;;11.40;99.90;;;;;;4980875;28;20454;-88
2022/01/01 10:05:30;;;;;;;3.07;2.70;;;11.70;99.90;;;;;;4994662;28;21001;-88
2022/01/01 10:08:01;;;;;;;3.43;2.63;;;11.90;99.90;;;;;;4994943;28;20802;-88
2022/01/01 10:10:28;;;;;;;2.30;2.10;;;12.00;99.90;;;;;;4995126;28;20481;-88
2022/01/01 10:12:55;;;;;;;3.30;3.17;;;12.20;99.90;;;;;;4997820;28;20492;-88
2022/01/01 10:15:22;;;;;;;3.93;2.83;;;12.40;99.90;;;;;;4999045;28;20513;-89
2022/01/01 10:17:50;;;;;;;3.03;2.83;;;12.70;99.90;;;;;;4995112;28;20843;-88
2022/01/01 10:20:17;;;;;;;3.70;3.40;;;12.90;99.90;;;;;;4994438;28;20485;-88
2022/01/01 10:22:48;;;;;;;3.20;2.90;;;12.90;99.90;;;;;;4994547;28;20449;-88
2022/01/01 10:28:08;;;;;;;2.47;2.30;;;13.10;99.90;;;;;;4939409;28;20437;-88
2022/01/01 10:30:38;;;;;;;2.77;2.50;;;13.20;99.90;;;;;;4994504;28;20528;-90
2022/01/01 10:33:55;;;;;;;4.53;2.60;;;13.20;99.90;;;;;;4994778;28;21036;-88
2022/01/01 10:56:54;;;;;;;4.57;4.27;;;16.50;99.90;;;;;;4862347;29;20514;-86
2022/01/01 11:02:50;;;;;;;2.60;2.40;;;18.10;97.60;;;;;;4935824;29;20452;-86
2022/01/01 11:08:42;;;;;;;3.37;2.90;;;19.60;95.70;;;;;;4933325;29;20457;-84
2022/01/01 11:11:15;;;;;;;3.00;2.80;;;20.50;93.50;;;;;;4986105;28;20556;-84
2022/01/01 11:13:56;;;;;;;3.17;2.97;;;20.80;92.20;;;;;;4996147;28;20482;-84
2022/01/01 11:16:23;;;;;;;5.03;3.53;;;21.10;91.50;;;;;;4996051;28;20458;-84
2022/01/01 11:18:53;;;;;;;3.50;3.20;;;21.20;90.50;;;;;;4996691;28;21127;-83
2022/01/01 11:21:21;;;;;;;4.17;3.77;;;21.30;90.30;;;;;;4992204;28;20468;-84
2022/01/01 11:23:49;;;;;;;3.03;2.83;;;21.20;89.40;;;;;;4991874;28;20454;-83
2022/01/01 11:26:18;;;;;;;3.50;3.20;;;20.80;89.50;;;;;;4996458;28;20458;-84
2022/01/01 11:28:49;;;;;;;3.50;3.30;;;20.50;90.10;;;;;;4996086;28;20548;-84
2022/01/01 11:31:19;;;;;;;3.60;3.40;;;20.70;90.30;;;;;;4995162;28;20482;-82
2022/01/01 11:33:54;;;;;;;5.00;4.50;;;20.50;90.00;;;;;;4995030;28;20482;-83
2022/01/01 11:36:23;;;;;;;4.63;4.10;;;20.60;90.10;;;;;;4990891;28;21017;-82
2022/01/01 11:38:53;;;;;;;3.73;3.43;;;21.00;89.30;;;;;;4989894;28;20457;-83
2022/01/01 11:41:20;;;;;;;3.80;3.50;;;21.30;87.10;;;;;;4989040;28;20478;-83
2022/01/01 11:43:49;;;;;;;3.40;3.13;;;21.70;85.90;;;;;;4994217;28;20452;-83
2022/01/01 11:46:17;;;;;;;5.50;5.10;;;21.70;85.30;;;;;;4993322;28;20459;-83
2022/01/01 11:48:52;;;;;;;4.17;3.77;;;21.70;85.70;;;;;;4994599;28;20466;-83
2022/01/01 11:51:35;;;;;;;5.73;4.80;;;22.10;84.80;;;;;;4997618;28;20478;-83
2022/01/01 11:54:28;;;;;;;4.37;4.07;;;22.40;82.50;;;;;;4999415;28;20501;-83
2022/01/01 11:57:05;;;;;;;4.33;3.73;;;22.60;81.90;;;;;;4998959;28;20448;-83
2022/01/01 11:59:33;;;;;;;4.80;4.40;;;22.80;81.40;;;;;;4999238;28;20464;-83
2022/01/01 12:02:01;;;;;;;4.57;4.23;;;23.10;80.10;;;;;;4997611;28;20992;-84
2022/01/01 12:04:32;;;;;;;5.10;3.97;;;23.30;80.50;;;;;;4995237;28;20444;-82
2022/01/01 12:07:00;;;;;;;5.53;5.13;;;23.80;79.20;;;;;;4992416;28;20939;-84
2022/01/01 12:09:28;;;;;;;4.70;4.30;;;23.80;77.70;;;;;;4997054;28;20452;-83
2022/01/01 12:11:57;;;;;;;5.80;4.80;;;24.00;77.80;;;;;;4996778;28;20520;-84
2022/01/01 12:14:26;;;;;;;4.30;4.00;;;24.20;76.90;;;;;;4998412;28;20485;-83
2022/01/01 12:16:54;;;;;;;6.20;5.70;;;24.40;75.20;;;;;;4997630;28;20458;-83
2022/01/01 12:19:23;;;;;;;6.93;6.13;;;24.70;74.80;;;;;;4998405;28;20454;-83
2022/01/01 12:22:05;;;;;;;6.17;5.37;;;24.80;73.90;;;;;;4987754;28;20471;-85
2022/01/01 12:24:38;;;;;;;6.80;6.30;;;25.30;72.30;;;;;;4983027;28;20535;-84
2022/01/01 12:27:13;;;;;;;6.57;5.90;;;25.20;71.70;;;;;;4997152;28;20459;-83
2022/01/01 12:29:41;;;;;;;6.50;6.00;;;25.00;71.70;;;;;;4998749;28;20465;-84
2022/01/01 12:32:08;;;;;;;6.83;6.23;;;24.80;71.50;;;;;;4999542;28;20470;-83
2022/01/01 12:34:36;;;;;;;6.50;5.90;;;24.50;71.70;;;;;;4999430;28;20853;-84
2022/01/01 12:37:05;;;;;;;6.57;5.97;;;24.50;72.50;;;;;;5000831;28;20461;-84
2022/01/01 12:42:47;;;;;;;6.77;6.17;;;24.40;71.80;;;;;;5143388;27;20590;-85
2022/01/01 12:45:16;;;;;;;5.77;5.30;;;24.20;72.10;;;;;;5133282;28;20435;-84
2022/01/01 12:47:43;;;;;;;5.27;4.93;;;23.80;72.80;;;;;;5144389;27;20453;-84
2022/01/01 12:50:10;;;;;;;5.67;5.23;;;23.70;74.20;;;;;;5137261;28;20461;-84
2022/01/01 12:52:36;;;;;;;5.43;4.93;;;23.80;73.40;;;;;;5137260;28;20478;-83
2022/01/01 12:55:03;;;;;;;7.03;5.33;;;24.00;73.30;;;;;;5137185;28;20968;-85
2022/01/01 12:57:31;;;;;;;6.10;5.50;;;24.00;72.80;;;;;;5134744;27;20543;-85
2022/01/01 13:00:20;;;;;;;5.17;4.77;;;24.10;72.40;;;;;;5114989;28;21180;-85
2022/01/01 13:02:47;;;;;;;6.30;5.70;;;23.70;72.50;;;;;;5127241;28;20444;-84
2022/01/01 13:05:15;;;;;;;6.07;5.47;;;23.50;73.70;;;;;;5120281;27;20452;-85
2022/01/01 13:07:42;;;;;;;6.13;5.73;;;23.10;74.50;;;;;;5132808;27;20453;-84
2022/01/01 13:10:12;;;;;;;6.83;6.23;;;23.10;75.00;;;;;;5124385;28;20966;-83
2022/01/01 13:12:38;;;;;;;5.20;4.80;;;22.90;74.40;;;;;;5124539;27;20446;-84
2022/01/01 13:15:08;;;;;;;5.47;4.70;;;22.60;75.20;;;;;;5120916;28;20465;-84
2022/01/01 13:17:35;;;;;;;4.93;4.53;;;22.20;76.10;;;;;;5115149;28;20449;-83
2022/01/01 13:20:03;;;;;;;5.10;4.70;;;21.70;77.30;;;;;;5130920;28;20448;-83
2022/01/01 13:22:30;;;;;;;4.93;4.30;;;21.50;78.40;;;;;;5114383;28;21010;-83
2022/01/01 13:25:00;;;;;;;5.07;4.77;;;21.50;79.00;;;;;;5114060;28;20970;-83
2022/01/01 13:27:29;;;;;;;5.33;4.83;;;21.40;78.70;;;;;;5113284;28;20459;-84
2022/01/01 13:30:01;;;;;;;6.03;5.10;;;21.30;79.60;;;;;;5118350;27;20470;-81
2022/01/01 13:38:39;;;;;;;7.13;6.43;;;20.80;81.20;;;;;;5104440;28;20428;-84
2022/01/01 13:41:06;;;;;;;6.03;5.33;;;20.50;81.40;;;;;;5113460;28;20481;-84
2022/01/01 13:43:34;;;;;;;8.00;6.80;;;20.10;82.60;;;;;;5114726;28;20438;-84
2022/01/01 13:46:12;;;;;;;8.67;6.67;;;19.60;84.50;;;;;;5115193;28;20457;-84
2022/01/01 13:48:46;;;;;;;8.90;6.00;;;19.20;86.10;;;;;;5114237;28;20828;-83